Time;durP1;ratioP1;P1;durP2;ratioP2;P2;SDS_P1;SDS_P2;PMS_P1;PMS_P2;Temp;Humidity;BMP_temperature;BMP_pressure;BME280_temperature;BME280_humidity;BME280_pressure;Samples;Min_cycle;Max_cycle;Signal;HPM_P1;HPM_P2
2022/05/16 00:00:27;;;;;;;20.75;6.20;;;;;;;16.54;56.40;101178.13;5144860;27;20109;-66
2022/05/16 00:02:54;;;;;;;23.25;6.68;;;;;;;16.50;57.03;101177.28;5146095;27;20030;-66
2022/05/16 00:05:20;;;;;;;22.38;6.25;;;;;;;16.51;56.74;101172.81;5143950;27;20011;-65
2022/05/16 00:07:47;;;;;;;19.45;6.07;;;;;;;16.44;57.41;101169.38;5146662;27;20029;-64
2022/05/16 00:10:13;;;;;;;20.95;6.30;;;;;;;16.42;57.55;101164.97;5143741;27;20015;-66
2022/05/16 00:12:39;;;;;;;20.48;6.50;;;;;;;16.42;57.83;101164.97;5146548;27;20130;-65
2022/05/16 00:15:07;;;;;;;22.10;6.40;;;;;;;16.42;57.65;101170.31;5143960;27;20106;-65
2022/05/16 00:17:32;;;;;;;21.25;6.70;;;;;;;16.35;57.99;101162.41;5145821;27;20470;-65
2022/05/16 00:19:58;;;;;;;21.38;6.70;;;;;;;16.30;57.96;101158.03;5144641;27;20066;-66
2022/05/16 00:22:25;;;;;;;23.83;6.80;;;;;;;16.30;58.40;101153.56;5144108;27;20466;-61
2022/05/16 00:24:50;;;;;;;20.42;6.93;;;;;;;16.27;58.64;101152.75;5142939;27;20030;-63
2022/05/16 00:27:16;;;;;;;21.63;7.10;;;;;;;16.22;58.49;101139.44;5141372;27;20026;-61
2022/05/16 00:29:41;;;;;;;21.23;6.50;;;;;;;16.19;58.84;101142.16;5141239;27;20045;-62
2022/05/16 00:32:08;;;;;;;20.77;6.75;;;;;;;16.15;59.05;101146.69;5145496;27;20768;-61
2022/05/16 00:34:33;;;;;;;20.08;6.55;;;;;;;16.21;58.56;101146.59;5139888;27;20026;-62
2022/05/16 00:36:59;;;;;;;20.95;6.82;;;;;;;16.14;58.69;101147.56;5142654;27;20026;-61
2022/05/16 00:39:24;;;;;;;22.55;6.90;;;;;;;16.06;59.56;101144.13;5146365;27;20438;-63
2022/05/16 00:41:51;;;;;;;21.77;6.32;;;;;;;15.98;59.62;101146.91;5142844;27;20027;-61
2022/05/16 00:44:18;;;;;;;21.20;6.43;;;;;;;16.03;59.38;101141.50;5145738;27;20022;-62
2022/05/16 00:46:44;;;;;;;21.83;7.15;;;;;;;15.80;60.56;101148.03;5143856;27;20029;-63
2022/05/16 00:49:22;;;;;;;19.95;6.72;;;;;;;15.94;59.63;101149.63;5144854;27;20027;-62
2022/05/16 00:51:52;;;;;;;22.40;7.30;;;;;;;15.93;60.29;101140.75;5142828;27;20469;-61
2022/05/16 00:54:27;;;;;;;20.98;6.93;;;;;;;15.94;60.55;101145.16;5145816;27;20027;-63
2022/05/16 00:56:59;;;;;;;21.35;7.18;;;;;;;15.89;60.80;101141.69;5138711;27;20057;-62
2022/05/16 00:59:33;;;;;;;21.23;6.75;;;;;;;15.91;61.06;101139.88;5138749;27;20019;-65
2022/05/16 01:04:48;;;;;;;22.83;6.85;;;;;;;15.76;62.43;101129.41;5143624;27;20404;-61
2022/05/16 01:07:26;;;;;;;23.33;7.90;;;;;;;15.71;61.91;101133.88;5144909;27;20055;-61
2022/05/16 01:09:51;;;;;;;21.70;7.18;;;;;;;15.75;62.26;101127.63;5138459;27;20114;-61
2022/05/16 01:12:17;;;;;;;21.60;7.57;;;;;;;15.68;62.24;101132.13;5145340;27;20104;-61
2022/05/16 01:14:50;;;;;;;23.30;7.72;;;;;;;15.60;61.74;101131.38;5143259;27;20461;-65
2022/05/16 01:17:16;;;;;;;21.77;7.80;;;;;;;15.53;63.44;101143.88;5145322;27;20106;-62
2022/05/16 01:19:42;;;;;;;24.35;7.88;;;;;;;15.51;62.93;101135.03;5143350;27;20473;-65
2022/05/16 01:22:32;;;;;;;26.23;7.70;;;;;;;15.47;61.54;101130.63;5143840;27;20027;-65
2022/05/16 01:25:04;;;;;;;21.77;7.57;;;;;;;15.37;63.60;101142.28;5139384;27;20027;-64
2022/05/16 01:27:43;;;;;;;21.93;8.17;;;;;;;15.39;63.45;101137.81;5145063;27;20023;-64
2022/05/16 01:30:09;;;;;;;22.15;7.85;;;;;;;15.42;64.10;101144.00;5144069;27;20283;-65
2022/05/16 01:32:34;;;;;;;23.88;7.88;;;;;;;15.37;63.96;101143.16;5144498;27;20033;-63
2022/05/16 01:35:00;;;;;;;21.90;8.27;;;;;;;15.29;64.65;101137.91;5142840;27;20023;-65
2022/05/16 01:38:18;;;;;;;21.45;7.80;;;;;;;15.31;65.54;101132.56;5145572;27;20459;-65
2022/05/16 01:40:11;;;;;;;23.65;8.43;;;;;;;15.08;66.49;101131.00;5142466;27;20439;-63
2022/05/16 01:42:36;;;;;;;22.88;8.25;;;;;;;14.94;68.26;101128.50;5144159;27;20026;-64
2022/05/16 01:45:01;;;;;;;22.17;7.78;;;;;;;14.71;70.08;101131.34;5142744;27;20041;-64
2022/05/16 01:47:26;;;;;;;21.98;8.10;;;;;;;14.78;69.80;101132.16;5127149;27;20067;-62
2022/05/16 01:49:52;;;;;;;22.27;8.00;;;;;;;14.76;70.24;101123.34;5144897;27;20106;-64
2022/05/16 01:52:17;;;;;;;22.52;7.88;;;;;;;14.82;69.83;101123.28;5148909;27;20589;-64
2022/05/16 01:54:42;;;;;;;22.05;7.90;;;;;;;14.76;70.10;101128.66;5147208;27;20035;-65
2022/05/16 01:57:08;;;;;;;21.30;7.95;;;;;;;14.64;71.59;101127.84;5147515;27;20023;-65
2022/05/16 01:59:33;;;;;;;21.83;8.40;;;;;;;14.64;71.73;101108.34;5146473;27;20072;-65
2022/05/16 02:01:58;;;;;;;23.27;8.27;;;;;;;14.64;71.98;101109.22;5143616;27;20062;-64
2022/05/16 02:04:23;;;;;;;21.13;7.75;;;;;;;14.59;72.79;101119.00;5143069;27;20026;-64
2022/05/16 02:06:49;;;;;;;21.98;8.05;;;;;;;14.58;72.89;101108.38;5147722;27;20026;-64
2022/05/16 02:09:14;;;;;;;22.25;8.10;;;;;;;14.36;75.00;101112.94;5141954;27;20052;-67
2022/05/16 02:11:39;;;;;;;21.38;8.40;;;;;;;14.28;75.80;101105.94;5145942;27;20034;-65
2022/05/16 02:14:05;;;;;;;22.23;8.32;;;;;;;14.27;75.80;101101.50;5149055;27;20031;-64
2022/05/16 02:16:30;;;;;;;22.55;8.45;;;;;;;14.04;77.63;101111.41;5145727;27;20362;-64
2022/05/16 02:18:55;;;;;;;20.38;7.65;;;;;;;14.08;77.93;101098.09;5148224;27;20034;-64
2022/05/16 02:26:49;;;;;;;21.52;8.57;;;;;;;14.14;77.91;101097.16;5145946;27;20058;-64
2022/05/16 02:29:17;;;;;;;21.95;8.23;;;;;;;14.24;77.06;101092.66;5147712;27;20054;-65
2022/05/16 02:31:42;;;;;;;22.00;8.40;;;;;;;14.19;77.35;101100.66;5146416;27;20126;-64
2022/05/16 02:34:08;;;;;;;22.75;8.20;;;;;;;14.26;76.77;101091.75;5148752;27;20050;-64
2022/05/16 02:36:33;;;;;;;21.25;8.15;;;;;;;14.25;77.28;101084.66;5145190;27;20031;-64
2022/05/16 02:38:58;;;;;;;21.42;8.23;;;;;;;14.28;77.17;101086.44;5148098;27;20380;-64
2022/05/16 02:41:24;;;;;;;22.38;8.40;;;;;;;14.24;77.34;101082.91;5146214;27;20022;-65
2022/05/16 02:43:49;;;;;;;21.35;8.27;;;;;;;14.14;78.02;101081.22;5146846;27;20120;-65
2022/05/16 02:46:14;;;;;;;23.33;8.82;;;;;;;14.18;78.11;101080.28;5147339;27;20122;-66
2022/05/16 02:48:40;;;;;;;22.83;8.90;;;;;;;14.24;78.01;101072.28;5145572;27;20019;-65
2022/05/16 02:51:05;;;;;;;22.10;8.60;;;;;;;14.25;77.80;101073.16;5148392;27;20019;-66
2022/05/16 02:53:30;;;;;;;22.10;8.68;;;;;;;14.29;77.74;101073.13;5144841;27;20466;-65
2022/05/16 02:55:56;;;;;;;21.83;8.75;;;;;;;14.28;77.73;101067.81;5129384;27;20033;-65
2022/05/16 02:58:21;;;;;;;22.50;8.85;;;;;;;14.33;78.43;101067.78;5145996;27;20033;-65
2022/05/16 03:00:46;;;;;;;21.40;8.65;;;;;;;14.32;78.12;101063.38;5145525;27;20035;-65
2022/05/16 03:03:12;;;;;;;22.52;8.85;;;;;;;14.24;78.64;101066.06;5147363;27;20023;-65
2022/05/16 03:05:37;;;;;;;23.20;9.02;;;;;;;14.22;79.03;101055.44;5144756;27;20054;-64
2022/05/16 03:08:03;;;;;;;24.02;8.95;;;;;;;14.29;78.58;101045.66;5148254;27;20078;-65
2022/05/16 03:10:28;;;;;;;22.02;8.95;;;;;;;14.28;79.00;101051.88;5145176;27;20076;-65
2022/05/16 03:12:53;;;;;;;22.13;8.77;;;;;;;14.27;79.25;101056.31;5146687;27;20062;-65
2022/05/16 03:15:19;;;;;;;21.95;8.73;;;;;;;14.26;79.07;101049.22;5146433;27;20039;-65
2022/05/16 03:17:45;;;;;;;21.65;8.60;;;;;;;14.21;79.74;101059.03;5145394;27;20029;-65
2022/05/16 03:20:13;;;;;;;21.63;8.82;;;;;;;14.16;80.25;101058.16;5128999;27;20034;-66
2022/05/16 03:22:38;;;;;;;24.02;8.98;;;;;;;14.25;79.89;101051.88;5144718;27;20473;-64
2022/05/16 03:25:05;;;;;;;21.98;9.02;;;;;;;14.24;80.04;101056.34;5147653;27;20030;-65
2022/05/16 03:27:30;;;;;;;22.88;8.90;;;;;;;14.16;80.66;101058.16;5144373;27;20019;-66
2022/05/16 03:29:56;;;;;;;22.55;9.10;;;;;;;14.13;80.95;101060.84;5147139;27;20027;-66
2022/05/16 03:32:22;;;;;;;23.85;8.90;;;;;;;14.07;80.79;101064.41;5145475;27;20018;-65
2022/05/16 03:34:53;;;;;;;23.00;9.40;;;;;;;14.15;80.96;101066.16;5145547;27;20028;-64
2022/05/16 03:37:18;;;;;;;21.85;8.60;;;;;;;14.12;81.09;101061.72;5146149;27;20034;-66
2022/05/16 03:42:32;;;;;;;22.83;9.48;;;;;;;14.12;81.36;101059.97;5144335;27;20042;-61
2022/05/16 03:44:57;;;;;;;22.73;8.77;;;;;;;14.24;80.80;101063.41;5146742;27;20034;-62
2022/05/16 03:47:22;;;;;;;22.60;8.77;;;;;;;14.17;81.14;101051.97;5145317;27;20430;-63
2022/05/16 03:49:48;;;;;;;22.85;8.85;;;;;;;14.22;80.68;101058.09;5145247;27;20076;-63
2022/05/16 03:52:13;;;;;;;23.25;9.05;;;;;;;14.19;81.54;101055.47;5146242;27;20046;-62
2022/05/16 03:54:40;;;;;;;20.95;8.52;;;;;;;14.21;81.49;101052.81;5144071;27;20023;-67
2022/05/16 03:57:06;;;;;;;21.70;9.25;;;;;;;14.18;81.81;101055.47;5147406;27;20105;-66
2022/05/16 03:59:31;;;;;;;22.80;8.90;;;;;;;14.21;81.87;101056.38;5143548;27;20478;-64
2022/05/16 04:01:58;;;;;;;22.70;8.80;;;;;;;14.19;81.89;101051.94;5146377;27;20096;-67
2022/05/16 04:04:24;;;;;;;21.80;8.80;;;;;;;14.25;81.65;101052.75;5144744;27;20456;-62
2022/05/16 04:06:49;;;;;;;22.10;9.05;;;;;;;14.28;81.75;101051.88;5145082;27;20016;-64
2022/05/16 04:09:15;;;;;;;24.13;9.20;;;;;;;14.29;82.14;101048.31;5146017;27;20027;-67
2022/05/16 04:11:41;;;;;;;24.67;9.00;;;;;;;14.27;82.53;101051.00;5124378;27;20057;-64
2022/05/16 04:14:07;;;;;;;23.45;8.68;;;;;;;14.25;82.72;101057.22;5146906;27;20050;-65
2022/05/16 04:16:33;;;;;;;22.13;8.75;;;;;;;14.26;83.19;101058.97;5143157;27;20028;-63
2022/05/16 04:18:58;;;;;;;25.63;8.70;;;;;;;14.37;82.28;101058.88;5146337;27;20018;-63
2022/05/16 04:21:23;;;;;;;24.85;8.88;;;;;;;14.35;82.89;101071.31;5144517;27;20081;-63
2022/05/16 04:23:49;;;;;;;24.30;8.88;;;;;;;14.32;83.14;101060.72;5144448;27;20034;-63
2022/05/16 04:26:15;;;;;;;22.67;9.05;;;;;;;14.35;84.00;101068.66;5145832;27;20121;-62
2022/05/16 04:28:40;;;;;;;25.05;8.80;;;;;;;14.47;83.03;101063.22;5125007;27;20106;-62
2022/05/16 04:31:05;;;;;;;24.67;8.77;;;;;;;14.43;83.38;101057.06;5146409;27;20023;-63
2022/05/16 04:33:33;;;;;;;23.70;8.85;;;;;;;14.46;83.13;101058.84;5143386;27;20019;-62
2022/05/16 04:35:59;;;;;;;22.45;8.90;;;;;;;14.51;84.31;101059.66;5145938;27;20029;-64
2022/05/16 04:38:25;;;;;;;24.05;9.10;;;;;;;14.56;83.46;101065.84;5143818;27;20034;-65
2022/05/16 04:43:34;;;;;;;23.85;9.15;;;;;;;14.79;82.07;101059.44;5138729;27;20090;-63
2022/05/16 04:46:04;;;;;;;21.98;8.40;;;;;;;14.84;81.25;101062.94;5146072;27;20520;-64
2022/05/16 04:48:29;;;;;;;24.52;8.80;;;;;;;14.96;80.65;101059.28;5143069;27;20015;-63
2022/05/16 04:50:55;;;;;;;22.42;9.00;;;;;;;15.05;80.93;101066.28;5145238;27;20019;-64
2022/05/16 04:53:20;;;;;;;23.13;8.60;;;;;;;15.20;80.39;101062.56;5141104;27;20019;-65
2022/05/16 04:55:45;;;;;;;21.98;8.45;;;;;;;15.34;79.24;101063.28;5138763;27;20030;-64
2022/05/16 04:58:11;;;;;;;22.52;8.10;;;;;;;15.51;78.04;101065.75;5126642;27;20088;-64
2022/05/16 05:00:36;;;;;;;23.17;8.15;;;;;;;15.65;79.47;101070.88;5142938;27;20395;-62
2022/05/16 05:03:02;;;;;;;26.98;8.70;;;;;;;15.80;79.33;101077.81;5143894;27;20146;-63
2022/05/16 05:05:27;;;;;;;23.65;8.50;;;;;;;15.97;78.17;101069.59;5143964;27;20030;-65
2022/05/16 05:07:52;;;;;;;21.15;8.05;;;;;;;16.14;77.71;101075.56;5143534;27;20019;-65
2022/05/16 05:15:52;;;;;;;22.10;8.00;;;;;;;16.54;74.42;101066.94;5137911;27;20042;-65
2022/05/16 05:18:17;;;;;;;20.95;7.95;;;;;;;16.66;73.69;101071.19;5142780;27;20027;-64
2022/05/16 05:20:44;;;;;;;21.30;8.07;;;;;;;16.83;74.18;101075.34;5144333;27;20454;-65
2022/05/16 05:23:09;;;;;;;21.67;7.93;;;;;;;16.94;71.66;101072.53;5143204;27;20026;-65
2022/05/16 05:25:35;;;;;;;20.90;8.00;;;;;;;17.08;71.18;101082.03;5143809;27;20351;-65
2022/05/16 05:28:02;;;;;;;20.63;8.13;;;;;;;17.10;70.34;101076.66;5145272;27;20529;-64
2022/05/16 05:30:30;;;;;;;20.67;7.78;;;;;;;17.20;70.01;101074.69;5142253;27;20031;-64
2022/05/16 05:32:56;;;;;;;20.60;8.05;;;;;;;17.28;70.13;101069.19;5145760;27;20027;-62
2022/05/16 05:35:21;;;;;;;21.63;7.95;;;;;;;17.35;70.88;101071.69;5137838;27;20450;-64
2022/05/16 05:37:47;;;;;;;21.13;7.80;;;;;;;17.47;70.47;101075.03;5144883;27;20117;-66
2022/05/16 05:40:13;;;;;;;22.20;8.02;;;;;;;17.58;68.83;101075.72;5143193;27;20095;-66
2022/05/16 05:42:39;;;;;;;19.17;7.38;;;;;;;17.71;67.24;101079.00;5144045;27;20153;-66
2022/05/16 05:45:07;;;;;;;19.50;7.32;;;;;;;17.77;67.05;101093.09;5144344;27;20513;-65
2022/05/16 05:47:32;;;;;;;20.98;7.55;;;;;;;17.77;64.41;101093.09;5137516;27;20023;-64
2022/05/16 05:49:59;;;;;;;21.05;6.82;;;;;;;17.79;62.31;101098.41;5134551;27;20027;-66
2022/05/16 05:52:28;;;;;;;21.13;6.93;;;;;;;17.83;64.19;101097.44;5137637;27;20034;-65
2022/05/16 05:54:54;;;;;;;20.70;7.18;;;;;;;17.84;64.56;101096.53;5136303;27;20014;-67
2022/05/16 05:57:20;;;;;;;20.33;6.70;;;;;;;17.90;64.60;101107.13;5140315;27;20027;-64
2022/05/16 05:59:45;;;;;;;19.38;6.78;;;;;;;17.89;64.02;101109.78;5136204;27;20503;-65
2022/05/16 06:02:10;;;;;;;22.25;7.32;;;;;;;17.93;63.97;101104.38;5136233;27;20469;-68
2022/05/16 06:04:36;;;;;;;20.52;6.80;;;;;;;18.06;64.04;101113.00;5135935;27;20023;-66
2022/05/16 06:07:03;;;;;;;22.35;7.55;;;;;;;18.18;61.39;101113.66;5135783;27;20079;-66
2022/05/16 06:09:28;;;;;;;20.15;7.00;;;;;;;18.27;61.72;101108.94;5139367;27;20039;-65
2022/05/16 06:11:54;;;;;;;21.55;7.50;;;;;;;18.38;60.65;101111.38;5138974;27;20087;-64
2022/05/16 06:14:20;;;;;;;22.25;6.90;;;;;;;18.39;60.61;101117.59;5137285;27;20047;-66
2022/05/16 06:16:45;;;;;;;21.63;6.80;;;;;;;18.49;60.01;101123.63;5139157;27;20431;-65
2022/05/16 06:19:10;;;;;;;21.95;7.43;;;;;;;18.46;59.72;101125.47;5135537;27;20026;-62
2022/05/16 06:21:37;;;;;;;21.02;6.63;;;;;;;18.43;59.79;101122.84;5136525;27;20031;-63
2022/05/16 06:24:03;;;;;;;19.92;6.60;;;;;;;18.43;59.50;101128.19;5138600;27;20019;-62
2022/05/16 06:26:28;;;;;;;22.20;6.88;;;;;;;18.44;59.65;101129.09;5137470;27;20076;-62
2022/05/16 06:28:56;;;;;;;21.88;6.50;;;;;;;18.50;59.76;101131.63;5136483;27;20024;-62
2022/05/16 06:31:22;;;;;;;20.10;6.30;;;;;;;18.55;59.67;101123.47;5130523;27;20015;-62
2022/05/16 06:33:48;;;;;;;18.77;6.13;;;;;;;18.55;59.75;101135.06;5137453;27;20041;-62
2022/05/16 06:36:15;;;;;;;19.88;6.40;;;;;;;18.55;59.75;101131.50;5139273;27;20109;-61
2022/05/16 06:38:41;;;;;;;19.80;6.10;;;;;;;18.61;59.71;101126.00;5139891;27;20027;-61
2022/05/16 06:41:06;;;;;;;20.92;6.45;;;;;;;18.64;60.23;101133.97;5142502;27;20368;-61
2022/05/16 06:43:33;;;;;;;21.40;6.28;;;;;;;18.67;60.70;101143.69;5139377;27;20023;-62
2022/05/16 06:45:59;;;;;;;19.23;6.10;;;;;;;18.74;59.30;101145.31;5132181;27;20065;-62
2022/05/16 06:48:25;;;;;;;22.42;6.15;;;;;;;18.78;60.27;101139.84;5139669;27;20059;-62
2022/05/16 06:50:51;;;;;;;19.13;6.10;;;;;;;18.87;59.63;101140.56;5135840;27;20046;-62
2022/05/16 06:53:29;;;;;;;20.95;6.30;;;;;;;19.01;58.67;101143.78;5141085;27;20137;-62
2022/05/16 06:55:56;;;;;;;20.58;5.97;;;;;;;19.13;58.78;101140.78;5139368;27;20304;-62
2022/05/16 06:58:22;;;;;;;20.13;6.10;;;;;;;19.17;58.42;101137.06;5142056;27;20058;-61
2022/05/16 07:00:47;;;;;;;19.30;6.18;;;;;;;19.25;59.06;101141.34;5141026;27;20054;-63
2022/05/16 07:03:13;;;;;;;20.35;6.25;;;;;;;19.31;58.58;101142.06;5136643;27;20362;-62
2022/05/16 07:05:39;;;;;;;20.02;5.80;;;;;;;19.38;57.91;101150.81;5139309;27;20442;-62
2022/05/16 07:08:06;;;;;;;21.92;6.10;;;;;;;19.48;58.49;101154.13;5141260;27;20027;-62
2022/05/16 07:10:31;;;;;;;19.67;5.82;;;;;;;19.66;57.30;101136.66;5140100;27;20038;-62
2022/05/16 07:12:57;;;;;;;20.88;6.43;;;;;;;19.88;57.23;101142.28;5115427;27;20482;-61
2022/05/16 07:15:23;;;;;;;20.65;6.00;;;;;;;20.12;57.40;101148.69;5121650;27;20062;-62
2022/05/16 07:17:49;;;;;;;19.88;5.65;;;;;;;20.26;56.16;101155.47;5119059;27;20428;-63
2022/05/16 07:20:15;;;;;;;19.08;5.95;;;;;;;20.28;56.66;101156.28;5114733;27;20031;-61
2022/05/16 07:22:45;;;;;;;18.88;5.50;;;;;;;20.37;55.96;101164.03;5118190;27;20026;-61
2022/05/16 07:25:13;;;;;;;17.27;5.45;;;;;;;20.34;56.80;101161.47;5120060;27;20032;-63
2022/05/16 07:27:57;;;;;;;21.98;5.63;;;;;;;20.45;56.90;101159.31;5118462;27;20031;-63
2022/05/16 07:30:28;;;;;;;19.63;5.47;;;;;;;20.57;55.49;101162.56;5119251;27;20037;-62
2022/05/16 07:32:55;;;;;;;18.52;5.40;;;;;;;20.63;57.22;101165.03;5120089;27;20114;-61
2022/05/16 07:35:25;;;;;;;20.40;5.40;;;;;;;20.87;57.31;101160.69;5117409;27;20102;-62
2022/05/16 07:37:53;;;;;;;19.00;5.50;;;;;;;21.01;56.84;101154.84;5117014;27;20106;-63
2022/05/16 07:40:20;;;;;;;18.98;5.40;;;;;;;21.22;56.41;101163.97;5117090;27;20470;-63
2022/05/16 07:42:45;;;;;;;17.65;5.47;;;;;;;21.30;56.63;101152.94;5118764;27;20023;-62
2022/05/16 07:45:11;;;;;;;17.08;5.40;;;;;;;21.33;54.76;101161.75;5120402;27;20031;-64
2022/05/16 07:47:36;;;;;;;17.77;5.57;;;;;;;21.27;55.02;101166.50;5124612;27;20072;-64
2022/05/16 07:50:03;;;;;;;19.98;5.07;;;;;;;21.27;54.66;101170.06;5123986;27;20024;-64
2022/05/16 07:52:29;;;;;;;18.05;5.18;;;;;;;21.30;55.00;101166.38;5107802;27;20033;-62
2022/05/16 07:54:54;;;;;;;17.58;4.88;;;;;;;21.25;56.05;101178.19;5123143;27;20028;-64
2022/05/16 07:57:20;;;;;;;17.90;4.95;;;;;;;21.21;55.68;101179.22;5126183;27;20015;-62
2022/05/16 07:59:46;;;;;;;17.55;5.38;;;;;;;21.15;55.88;101181.25;5123486;27;20119;-62
2022/05/16 08:02:13;;;;;;;19.67;5.40;;;;;;;20.98;57.04;101182.69;5125056;27;20157;-64
2022/05/16 08:04:39;;;;;;;18.55;4.80;;;;;;;20.92;57.02;101182.03;5124457;27;20023;-63
2022/05/16 08:07:05;;;;;;;18.38;5.32;;;;;;;21.03;57.34;101179.88;5123980;27;20034;-62
2022/05/16 08:12:27;;;;;;;17.98;5.35;;;;;;;21.33;56.32;101191.34;5129152;27;20041;-62
2022/05/16 08:14:53;;;;;;;16.70;4.90;;;;;;;21.50;57.02;101177.31;5139025;27;20035;-64
2022/05/16 08:17:20;;;;;;;17.02;4.88;;;;;;;21.55;57.27;101187.91;5146350;27;20042;-64
2022/05/16 08:19:46;;;;;;;18.23;5.20;;;;;;;21.59;57.07;101182.38;5144001;27;20037;-64
2022/05/16 08:22:11;;;;;;;19.10;4.93;;;;;;;21.60;55.14;101183.28;5145389;27;20027;-62
2022/05/16 08:24:37;;;;;;;20.23;5.07;;;;;;;21.56;57.31;101184.31;5145184;27;20027;-63
2022/05/16 08:27:02;;;;;;;17.33;4.70;;;;;;;21.67;57.18;101197.34;5144460;27;20019;-64
2022/05/16 08:29:29;;;;;;;26.42;5.25;;;;;;;21.94;56.86;101190.97;5145856;27;20473;-65
2022/05/16 08:31:55;;;;;;;19.95;4.70;;;;;;;22.28;54.12;101194.19;5142868;27;20074;-66
2022/05/16 08:34:21;;;;;;;17.63;4.70;;;;;;;22.75;53.46;101193.25;5140387;27;20419;-63
2022/05/16 08:42:15;;;;;;;18.83;4.35;;;;;;;23.48;51.11;101204.56;5142739;27;20539;-65
2022/05/16 08:44:41;;;;;;;18.63;4.20;;;;;;;23.53;49.70;101207.91;5145783;27;20023;-62
2022/05/16 08:47:24;;;;;;;17.10;4.20;;;;;;;23.63;49.74;101198.47;5144067;27;20046;-64
2022/05/16 08:49:54;;;;;;;16.50;4.28;;;;;;;23.73;49.16;101188.13;5139489;27;20081;-61
2022/05/16 08:52:19;;;;;;;15.65;4.20;;;;;;;23.94;49.13;101186.34;5138986;27;20052;-61
2022/05/16 08:54:51;;;;;;;16.98;4.22;;;;;;;24.12;49.88;101194.53;5145983;27;20465;-66
2022/05/16 08:57:30;;;;;;;16.77;4.30;;;;;;;24.25;48.73;101189.41;5138714;27;20023;-66
2022/05/16 09:00:01;;;;;;;16.83;4.28;;;;;;;24.36;46.98;101196.06;5137484;27;20030;-64
2022/05/16 09:02:30;;;;;;;15.93;4.15;;;;;;;24.31;47.25;101189.97;5138531;27;20045;-66
2022/05/16 09:05:13;;;;;;;15.35;4.15;;;;;;;24.57;47.05;101184.25;5138384;27;20519;-67
2022/05/16 09:07:44;;;;;;;16.67;4.25;;;;;;;24.89;47.62;101185.41;5141835;27;20034;-66
2022/05/16 09:10:17;;;;;;;15.95;4.35;;;;;;;25.18;46.55;101191.16;5144560;27;20034;-67
2022/05/16 09:12:48;;;;;;;15.57;3.90;;;;;;;25.45;44.46;101190.69;5144354;27;20039;-66
2022/05/16 09:15:26;;;;;;;17.33;4.25;;;;;;;25.55;44.81;101189.25;5142467;27;20031;-65
2022/05/16 09:18:07;;;;;;;16.02;4.10;;;;;;;25.48;44.67;101190.53;5143724;27;20029;-66
2022/05/16 09:20:41;;;;;;;15.15;4.10;;;;;;;25.63;45.19;101192.44;5142374;27;20031;-66
2022/05/16 09:23:35;;;;;;;18.23;4.43;;;;;;;25.86;45.10;101193.91;5138219;27;20114;-65
2022/05/16 09:26:12;;;;;;;17.00;4.20;;;;;;;25.75;44.24;101197.19;5061351;28;20047;-64
2022/05/16 09:28:46;;;;;;;17.30;4.00;;;;;;;25.73;44.49;101190.09;5054121;28;20037;-67
2022/05/16 09:31:19;;;;;;;18.20;4.28;;;;;;;25.81;43.52;101198.69;5051122;28;20037;-69
2022/05/16 09:33:50;;;;;;;14.35;4.10;;;;;;;25.82;44.43;101196.84;5052088;28;20407;-69
2022/05/16 09:36:21;;;;;;;17.98;4.40;;;;;;;26.04;43.75;101197.47;5056334;28;20029;-67
2022/05/16 09:38:46;;;;;;;16.20;4.25;;;;;;;26.38;44.41;101200.97;5055706;28;20016;-67
2022/05/16 09:41:24;;;;;;;14.85;4.43;;;;;;;26.78;43.34;101205.97;5037706;28;20020;-64
2022/05/16 09:44:21;;;;;;;15.27;4.13;;;;;;;27.04;41.97;101201.75;5051927;28;20128;-62
2022/05/16 09:46:48;;;;;;;17.48;4.25;;;;;;;27.60;40.88;101222.88;4991585;28;20494;-62
2022/05/16 09:49:19;;;;;;;15.55;4.50;;;;;;;28.64;39.34;101209.06;4988660;28;20122;-63
2022/05/16 09:51:53;;;;;;;15.43;4.30;;;;;;;29.99;36.04;101220.72;4989464;28;20460;-63
2022/05/16 09:54:30;;;;;;;18.70;4.63;;;;;;;29.94;36.01;101228.38;4990282;28;20027;-64
2022/05/16 09:57:13;;;;;;;17.77;4.32;;;;;;;29.84;35.23;101236.31;4989517;28;21704;-63
2022/05/16 09:59:43;;;;;;;15.35;4.25;;;;;;;29.38;35.17;101244.94;4989967;28;20053;-63
2022/05/16 10:02:30;;;;;;;16.55;4.63;;;;;;;29.51;36.67;101239.53;4994444;28;20045;-63
2022/05/16 10:05:01;;;;;;;15.70;4.40;;;;;;;28.83;37.10;101255.84;5056846;28;20097;-64
2022/05/16 10:07:41;;;;;;;18.88;4.53;;;;;;;28.12;39.58;101254.94;5056342;28;20032;-64
2022/05/16 10:10:13;;;;;;;19.27;4.70;;;;;;;27.74;40.17;101255.47;5054779;28;20226;-63
2022/05/16 10:12:39;;;;;;;19.95;5.03;;;;;;;27.78;40.40;101254.28;5055595;28;20562;-66
2022/05/16 10:15:05;;;;;;;17.60;5.00;;;;;;;27.57;40.81;101261.06;5056480;28;20025;-66
2022/05/16 10:17:35;;;;;;;18.73;4.78;;;;;;;26.78;41.70;101269.22;5058990;28;20175;-66
2022/05/16 10:20:09;;;;;;;19.80;5.10;;;;;;;26.20;43.72;101264.34;5059967;28;20032;-64
2022/05/16 10:22:35;;;;;;;18.83;4.65;;;;;;;25.64;44.97;101272.66;5065132;27;20040;-65
2022/05/16 10:25:03;;;;;;;16.50;4.93;;;;;;;25.11;47.62;101278.97;5132863;27;20023;-67
2022/05/16 10:27:33;;;;;;;22.58;5.60;;;;;;;24.78;50.63;101290.47;5133361;27;20149;-68
2022/05/16 10:30:06;;;;;;;20.08;5.30;;;;;;;23.71;57.91;101310.56;5134698;27;20149;-63
2022/05/16 10:35:34;;;;;;;21.00;5.70;;;;;;;21.53;68.55;101337.72;5139255;27;20066;-67
2022/05/16 10:38:15;;;;;;;21.50;6.00;;;;;;;21.39;73.05;101322.00;5140029;27;20087;-68
2022/05/16 10:40:44;;;;;;;21.92;6.32;;;;;;;21.42;75.75;101336.25;5142931;27;20031;-68
2022/05/16 10:43:34;;;;;;;22.05;6.90;;;;;;;20.90;83.12;101332.53;5140850;27;20027;-68
2022/05/16 10:46:10;;;;;;;19.45;6.30;;;;;;;21.33;82.63;101344.59;5141439;27;20043;-68
2022/05/16 10:48:50;;;;;;;20.70;6.20;;;;;;;22.42;75.04;101339.97;5138660;27;20027;-68
2022/05/16 10:51:27;;;;;;;19.38;6.38;;;;;;;23.94;70.16;101342.91;5136763;27;20027;-68
2022/05/16 10:54:05;;;;;;;22.20;6.80;;;;;;;25.80;56.86;101340.41;5139345;27;20023;-67
2022/05/16 10:56:53;;;;;;;21.20;6.32;;;;;;;26.49;52.69;101337.72;5134940;27;20031;-66
2022/05/16 11:00:06;;;;;;;19.42;6.63;;;;;;;25.96;53.06;101356.72;5135516;27;20550;-65
2022/05/16 11:03:08;;;;;;;22.33;6.93;;;;;;;25.44;53.41;101351.28;5079317;28;20040;-65
2022/05/16 11:05:47;;;;;;;19.95;6.68;;;;;;;25.05;54.22;101348.63;5075628;28;20051;-65
2022/05/16 11:08:24;;;;;;;19.95;7.15;;;;;;;24.71;55.27;101355.66;5070597;28;20603;-65
2022/05/16 11:11:16;;;;;;;18.83;6.15;;;;;;;24.46;54.78;101355.84;5069251;28;20037;-64
2022/05/16 11:13:48;;;;;;;20.77;6.72;;;;;;;24.12;57.06;101356.53;5069161;28;20193;-64
2022/05/16 11:16:21;;;;;;;19.42;6.20;;;;;;;24.12;56.45;101368.19;5060644;28;20036;-64
2022/05/16 11:18:57;;;;;;;21.80;7.10;;;;;;;23.83;58.21;101355.94;5072662;28;20036;-65
2022/05/16 11:21:53;;;;;;;20.38;6.82;;;;;;;23.54;60.06;101359.88;5075892;28;20060;-64
2022/05/16 11:24:34;;;;;;;21.73;7.53;;;;;;;23.79;58.73;101365.13;5077230;28;20094;-64
2022/05/16 11:27:07;;;;;;;20.95;7.03;;;;;;;23.76;61.03;101359.84;5074678;28;20108;-64
2022/05/16 11:29:47;;;;;;;22.90;7.30;;;;;;;23.80;60.93;101367.75;5072675;28;20032;-65
2022/05/16 11:32:21;;;;;;;21.13;8.48;;;;;;;23.50;59.61;101367.22;5076528;28;20132;-64
2022/05/16 11:35:08;;;;;;;24.83;8.32;;;;;;;23.16;66.08;101371.31;5075903;28;20036;-63
2022/05/16 11:37:46;;;;;;;23.33;9.05;;;;;;;22.76;72.20;101362.94;5093945;27;20489;-63
2022/05/16 11:40:24;;;;;;;22.13;8.43;;;;;;;23.28;67.72;101373.47;5138832;27;20031;-63
2022/05/16 11:43:15;;;;;;;21.65;8.77;;;;;;;23.80;62.66;101372.28;5138633;27;20031;-63
2022/05/16 11:45:57;;;;;;;22.35;8.20;;;;;;;24.04;62.74;101372.19;5141154;27;20023;-62
2022/05/16 11:48:50;;;;;;;20.88;8.10;;;;;;;24.12;60.41;101378.13;5137487;27;20043;-63
2022/05/16 11:51:22;;;;;;;20.30;7.60;;;;;;;24.01;60.41;101389.38;5138940;27;20118;-65
2022/05/16 11:53:57;;;;;;;22.17;8.38;;;;;;;23.92;60.64;101381.69;5136708;27;20430;-64
2022/05/16 12:02:26;;;;;;;20.90;8.90;;;;;;;23.50;61.89;101384.28;5133649;27;20503;-65